Pagina principală
METAR-TAF:

METAR-TAF

Aeroporturi :

Harrell Field

Camden, Arkansas, Statele Unite ale Americii

Latitudine: 33-37N, longitudine: 092-46W, elevație: 40 m

Observații meteo curente

Raportul a fost făcut în urmă cu 21 de minute, la 21:55 UTC
Vânt 4 kt de la Sud/Sud-vest
Temperatură 36°C
Umiditate 39%
Presiune 1015 hPa
Vizibilitate: 14.5 km
Cer senin

METAR: KCDH 222155Z AUTO 20004KT 9SM CLR 36/20 A2996 RMK AO2

Ora: 17:16 (22:16 UTC)


TAF: lipsă

Observații și prognoze meteo pentru peste 4.000 de aeroporturi (rapoarte METAR și TAF).

Stațiile disponibile sunt reprezentate pe hartă prin puncte galbene și roșii.

Țineți indicatorul mouse-ului pe punctul dorit pentru a vedea denumirea stației.

Apoi, faceți clic pentru a vedea observațiile și prognozele meteorologice.

Pentru a schimba harta: Pentru mărire, faceți clic pe butoanele verzi cu cruce neagră; pentru micșorare, pe butonul verde cu o liniuță; pentru hărți învecinate, pe săgețile verzi.


METAR-TAF: